sensor_id;sensor_type;location;lat;lon;timestamp;pressure;altitude;pressure_sealevel;temperature;humidity
15558;BME280;7880;50.110;9.372;2023-12-14T00:02:39;4.8905807208502665;;;4.937;100.0
15558;BME280;7880;50.110;9.372;2023-12-14T00:07:44;4.951084465184249;;;4.937;100.0
15558;BME280;7880;50.110;9.372;2023-12-14T00:12:55;5.046882146090502;;;5.062;100.0
15558;BME280;7880;50.110;9.372;2023-12-14T00:18:02;4.925874566618586;;;4.937;100.0
15558;BME280;7880;50.110;9.372;2023-12-14T00:22:59;5.092260031611659;;;5.062;100.0
15558;BME280;7880;50.110;9.372;2023-12-14T00:28:12;5.122511968389153;;;5.125;100.0
15558;BME280;7880;50.110;9.372;2023-12-14T00:33:05;5.001504284143448;;;5.062;100.0
15558;BME280;7880;50.110;9.372;2023-12-14T00:38:16;4.956126445770496;;;5.0;100.0
15558;BME280;7880;50.110;9.372;2023-12-14T00:43:22;4.78469926911057;;;4.812;100.0
15558;BME280;7880;50.110;9.372;2023-12-14T00:48:21;4.875454791315133;;;4.937;100.0
15558;BME280;7880;50.110;9.372;2023-12-14T00:53:24;4.82503504511551;;;4.875;100.0
15558;BME280;7880;50.110;9.372;2023-12-14T00:58:28;4.920832587778568;;;4.937;100.0
15558;BME280;7880;50.110;9.372;2023-12-14T01:03:35;4.9712523892754685;;;5.0;100.0
15558;BME280;7880;50.110;9.372;2023-12-14T01:08:37;4.9662104078161065;;;5.0;100.0
15558;BME280;7880;50.110;9.372;2023-12-14T01:13:43;5.056966118613491;;;5.062;100.0
15558;BME280;7880;50.110;9.372;2023-12-14T01:18:44;5.1527639156440275;;;5.187;100.0
15558;BME280;7880;50.110;9.372;2023-12-14T01:23:49;4.9813363530673085;;;5.062;100.0
15558;BME280;7880;50.110;9.372;2023-12-14T01:28:53;5.087218043167377;;;5.125;100.0
15558;BME280;7880;50.110;9.372;2023-12-14T01:33:58;5.193099861615337;;;5.25;100.0
15558;BME280;7880;50.110;9.372;2023-12-14T01:39:07;5.218309837306151;;;5.25;100.0
15558;BME280;7880;50.110;9.372;2023-12-14T01:44:25;5.278813808650011;;;5.25;100.0
15558;BME280;7880;50.110;9.372;2023-12-14T01:49:30;5.263687811885029;;;5.312;100.0
15558;BME280;7880;50.110;9.372;2023-12-14T01:54:37;5.238477823097492;;;5.312;100.0
15558;BME280;7880;50.110;9.372;2023-12-14T01:59:40;5.329233816784108;;;5.312;100.0
15558;BME280;7880;50.110;9.372;2023-12-14T02:04:47;5.440157937124605;;;5.375;100.0
15558;BME280;7880;50.110;9.372;2023-12-14T02:09:51;5.349401828186819;;;5.312;100.0
15558;BME280;7880;50.110;9.372;2023-12-14T02:14:56;5.329233816784108;;;5.375;100.0
15558;BME280;7880;50.110;9.372;2023-12-14T02:19:57;5.359485835634405;;;5.375;100.0
15558;BME280;7880;50.110;9.372;2023-12-14T02:24:59;5.2888978079485245;;;5.312;100.0
15558;BME280;7880;50.110;9.372;2023-12-14T02:30:22;5.40990589033463;;;5.375;100.0
15558;BME280;7880;50.110;9.372;2023-12-14T02:35:15;5.37461184898857;;;5.375;100.0
15558;BME280;7880;50.110;9.372;2023-12-14T02:40:21;5.3947798708686605;;;5.375;100.0
15558;BME280;7880;50.110;9.372;2023-12-14T02:45:32;5.40990589033463;;;5.375;100.0
15558;BME280;7880;50.110;9.372;2023-12-14T02:50:36;5.414947897405364;;;5.375;100.0
15558;BME280;7880;50.110;9.372;2023-12-14T02:55:46;5.445199945941567;;;5.437;100.0
15558;BME280;7880;50.110;9.372;2023-12-14T03:01:08;5.389737864962081;;;5.375;100.0
15558;BME280;7880;50.110;9.372;2023-12-14T03:06:04;5.3998218770662785;;;5.375;100.0
15558;BME280;7880;50.110;9.372;2023-12-14T03:11:09;5.480494015809382;;;5.437;100.0
15558;BME280;7880;50.110;9.372;2023-12-14T03:16:48;5.535956154414452;;;5.5;100.0
15558;BME280;7880;50.110;9.372;2023-12-14T03:21:35;5.540998168761144;;;5.5;100.0
15558;BME280;7880;50.110;9.372;2023-12-14T03:26:45;5.510746087046573;;;5.562;100.0
15558;BME280;7880;50.110;9.372;2023-12-14T03:32:07;5.500662062136689;;;5.5;100.0
15558;BME280;7880;50.110;9.372;2023-12-14T03:36:51;5.414947897405364;;;5.437;100.0
15558;BME280;7880;50.110;9.372;2023-12-14T03:43:07;5.576292277337052;;;5.562;100.0
15558;BME280;7880;50.110;9.372;2023-12-14T03:47:52;5.535956154414452;;;5.562;100.0
15558;BME280;7880;50.110;9.372;2023-12-14T03:52:57;5.611586400173837;;;5.562;100.0
15558;BME280;7880;50.110;9.372;2023-12-14T03:58:02;5.566208244860173;;;5.625;100.0
15558;BME280;7880;50.110;9.372;2023-12-14T04:03:07;5.697300757863559;;;5.687;100.0
15558;BME280;7880;50.110;9.372;2023-12-14T04:08:17;5.601502363622421;;;5.687;100.0
15558;BME280;7880;50.110;9.372;2023-12-14T04:13:21;5.586376310978085;;;5.625;100.0
15558;BME280;7880;50.110;9.372;2023-12-14T04:18:28;5.712426829716423;;;5.687;100.0
15558;BME280;7880;50.110;9.372;2023-12-14T04:23:39;5.586376310978085;;;5.625;100.0
15558;BME280;7880;50.110;9.372;2023-12-14T04:28:37;5.470409994391957;;;5.562;100.0
15558;BME280;7880;50.110;9.372;2023-12-14T04:33:41;5.616628418886103;;;5.625;100.0
15558;BME280;7880;50.110;9.372;2023-12-14T04:38:46;5.591418328235159;;;5.625;100.0
15558;BME280;7880;50.110;9.372;2023-12-14T04:43:51;5.460325974138686;;;5.562;100.0
15558;BME280;7880;50.110;9.372;2023-12-14T04:49:31;5.430073920363793;;;5.5;100.0
15558;BME280;7880;50.110;9.372;2023-12-14T04:54:40;5.566208244860173;;;5.562;100.0
15558;BME280;7880;50.110;9.372;2023-12-14T04:59:31;5.37461184898857;;;5.375;100.0
15558;BME280;7880;50.110;9.372;2023-12-14T05:04:35;5.283855808153748;;;5.312;100.0
15558;BME280;7880;50.110;9.372;2023-12-14T05:09:52;5.359485835634405;;;5.375;100.0
15558;BME280;7880;50.110;9.372;2023-12-14T05:14:55;5.349401828186819;;;5.375;100.0
15558;BME280;7880;50.110;9.372;2023-12-14T05:19:59;5.419989904767135;;;5.375;100.0
15558;BME280;7880;50.110;9.372;2023-12-14T05:25:15;5.430073920363793;;;5.437;100.0
15558;BME280;7880;50.110;9.372;2023-12-14T05:30:19;5.465367984119803;;;5.437;100.0
15558;BME280;7880;50.110;9.372;2023-12-14T05:35:23;5.404863883554936;;;5.375;100.0
15558;BME280;7880;50.110;9.372;2023-12-14T05:40:26;5.500662062136689;;;5.437;100.0
15558;BME280;7880;50.110;9.372;2023-12-14T05:46:04;5.55108219832764;;;5.562;100.0
15558;BME280;7880;50.110;9.372;2023-12-14T05:51:07;5.470409994391957;;;5.562;100.0
15558;BME280;7880;50.110;9.372;2023-12-14T05:56:12;5.47545200495515;;;5.5;100.0
15558;BME280;7880;50.110;9.372;2023-12-14T06:01:31;5.440157937124605;;;5.437;100.0
15558;BME280;7880;50.110;9.372;2023-12-14T06:06:47;5.445199945941567;;;5.437;100.0
15558;BME280;7880;50.110;9.372;2023-12-14T06:11:53;5.495620050118305;;;5.5;100.0
15558;BME280;7880;50.110;9.372;2023-12-14T06:16:57;5.60654438175261;;;5.562;100.0
15558;BME280;7880;50.110;9.372;2023-12-14T06:22:16;5.470409994391957;;;5.5;100.0
15558;BME280;7880;50.110;9.372;2023-12-14T06:27:29;5.581334294012049;;;5.562;100.0
15558;BME280;7880;50.110;9.372;2023-12-14T06:32:41;5.485536026954651;;;5.437;100.0
15558;BME280;7880;50.110;9.372;2023-12-14T06:38:20;5.470409994391957;;;5.437;100.0
15558;BME280;7880;50.110;9.372;2023-12-14T06:43:13;5.414947897405364;;;5.437;100.0
15558;BME280;7880;50.110;9.372;2023-12-14T06:48:18;5.404863883554936;;;5.375;100.0
15558;BME280;7880;50.110;9.372;2023-12-14T06:53:23;5.3695698442461435;;;5.375;100.0
15558;BME280;7880;50.110;9.372;2023-12-14T06:58:27;5.40990589033463;;;5.375;100.0
15558;BME280;7880;50.110;9.372;2023-12-14T07:03:29;5.304023809079081;;;5.312;100.0
15558;BME280;7880;50.110;9.372;2023-12-14T07:08:36;5.2888978079485245;;;5.312;100.0
15558;BME280;7880;50.110;9.372;2023-12-14T07:13:54;5.29898180841119;;;5.312;100.0
15558;BME280;7880;50.110;9.372;2023-12-14T07:18:55;5.389737864962081;;;5.375;100.0
15558;BME280;7880;50.110;9.372;2023-12-14T07:24:09;5.470409994391957;;;5.437;100.0
15558;BME280;7880;50.110;9.372;2023-12-14T07:29:42;5.425031912419945;;;5.375;100.0
15558;BME280;7880;50.110;9.372;2023-12-14T07:34:50;5.440157937124605;;;5.437;100.0
15558;BME280;7880;50.110;9.372;2023-12-14T07:40:39;5.404863883554936;;;5.375;100.0
15558;BME280;7880;50.110;9.372;2023-12-14T07:45:49;5.490578038390959;;;5.437;100.0
15558;BME280;7880;50.110;9.372;2023-12-14T07:50:40;5.546040183398873;;;5.437;100.0
15558;BME280;7880;50.110;9.372;2023-12-14T07:55:45;5.5258721265941855;;;5.5;100.0
15558;BME280;7880;50.110;9.372;2023-12-14T08:01:03;5.546040183398873;;;5.5;100.0
15558;BME280;7880;50.110;9.372;2023-12-14T08:06:12;5.425031912419945;;;5.437;100.0
15558;BME280;7880;50.110;9.372;2023-12-14T08:11:19;5.3947798708686605;;;5.375;100.0
15558;BME280;7880;50.110;9.372;2023-12-14T08:16:28;5.344359824899584;;;5.375;100.0
15558;BME280;7880;50.110;9.372;2023-12-14T08:21:23;5.3796538540220356;;;5.312;100.0
15558;BME280;7880;50.110;9.372;2023-12-14T08:26:29;5.40990589033463;;;5.375;100.0
15558;BME280;7880;50.110;9.372;2023-12-14T08:31:37;5.384695859346539;;;5.375;100.0
15558;BME280;7880;50.110;9.372;2023-12-14T08:36:40;5.3796538540220356;;;5.312;100.0
15558;BME280;7880;50.110;9.372;2023-12-14T08:42:00;5.40990589033463;;;5.375;100.0
15558;BME280;7880;50.110;9.372;2023-12-14T08:46:54;5.349401828186819;;;5.312;100.0
15558;BME280;7880;50.110;9.372;2023-12-14T08:51:01;5.359485835634405;;;5.312;100.0
15558;BME280;7880;50.110;9.372;2023-12-14T08:56:19;5.359485835634405;;;5.312;100.0
15558;BME280;7880;50.110;9.372;2023-12-14T09:01:09;5.354443831765093;;;5.312;100.0
15558;BME280;7880;50.110;9.372;2023-12-14T09:06:17;5.283855808153748;;;5.312;100.0
15558;BME280;7880;50.110;9.372;2023-12-14T09:11:18;5.37461184898857;;;5.375;100.0
15558;BME280;7880;50.110;9.372;2023-12-14T09:16:27;5.40990589033463;;;5.375;100.0
15558;BME280;7880;50.110;9.372;2023-12-14T09:21:28;6.277135386510054;;;6.312;100.0
15558;BME280;7880;50.110;9.372;2023-12-14T09:26:30;6.59982762951986;;;6.625;100.0
15558;BME280;7880;50.110;9.372;2023-12-14T09:31:35;5.667048622015864;;;5.875;100.0
15558;BME280;7880;50.110;9.372;2023-12-14T09:36:47;5.6216704378894065;;;5.625;100.0
15558;BME280;7880;50.110;9.372;2023-12-14T09:41:51;5.364527839794755;;;5.437;100.0
15558;BME280;7880;50.110;9.372;2023-12-14T09:46:54;5.3695698442461435;;;5.375;100.0
15558;BME280;7880;50.110;9.372;2023-12-14T09:51:59;5.29898180841119;;;5.312;100.0
15558;BME280;7880;50.110;9.372;2023-12-14T09:57:31;5.3090658100380095;;;5.312;100.0
15558;BME280;7880;50.110;9.372;2023-12-14T10:02:40;5.2687298105156515;;;5.25;100.0
15558;BME280;7880;50.110;9.372;2023-12-14T10:08:26;5.253603815496899;;;5.187;100.0
15558;BME280;7880;50.110;9.372;2023-12-14T10:13:42;5.258645813545445;;;5.187;100.0
15558;BME280;7880;50.110;9.372;2023-12-14T10:18:53;5.253603815496899;;;5.187;100.0
15558;BME280;7880;50.110;9.372;2023-12-14T10:23:46;5.193099861615337;;;5.187;100.0
15558;BME280;7880;50.110;9.372;2023-12-14T10:29:04;5.167889893200481;;;5.187;100.0
15558;BME280;7880;50.110;9.372;2023-12-14T10:34:13;5.213267841585912;;;5.187;100.0
15558;BME280;7880;50.110;9.372;2023-12-14T10:38:58;5.198141856171423;;;5.187;100.0
15558;BME280;7880;50.110;9.372;2023-12-14T10:44:17;5.208225846156711;;;5.187;100.0
15558;BME280;7880;50.110;9.372;2023-12-14T10:50:12;5.2233518333174285;;;5.187;100.0
15558;BME280;7880;50.110;9.372;2023-12-14T10:55:08;5.2435198202729225;;;5.187;100.0
15558;BME280;7880;50.110;9.372;2023-12-14T11:00:10;5.167889893200481;;;5.125;100.0
15558;BME280;7880;50.110;9.372;2023-12-14T11:05:34;5.082176055014133;;;5.062;100.0
15558;BME280;7880;50.110;9.372;2023-12-14T11:10:37;5.167889893200481;;;5.125;100.0
15558;BME280;7880;50.110;9.372;2023-12-14T11:15:35;5.208225846156711;;;5.125;100.0
15558;BME280;7880;50.110;9.372;2023-12-14T11:20:49;5.248561817739391;;;5.125;100.0
15558;BME280;7880;50.110;9.372;2023-12-14T11:25:48;5.1527639156440275;;;5.125;100.0
15558;BME280;7880;50.110;9.372;2023-12-14T11:30:54;5.167889893200481;;;5.125;100.0
15558;BME280;7880;50.110;9.372;2023-12-14T11:35:56;5.18301587337628;;;5.187;100.0
15558;BME280;7880;50.110;9.372;2023-12-14T11:41:03;5.1477219237072855;;;5.125;100.0
15558;BME280;7880;50.110;9.372;2023-12-14T11:46:10;5.172931886301376;;;5.125;100.0
15558;BME280;7880;50.110;9.372;2023-12-14T11:51:17;5.177973879693309;;;5.125;100.0
15558;BME280;7880;50.110;9.372;2023-12-14T11:56:23;5.1527639156440275;;;5.125;100.0
15558;BME280;7880;50.110;9.372;2023-12-14T12:01:32;5.18301587337628;;;5.125;100.0
15558;BME280;7880;50.110;9.372;2023-12-14T12:06:29;5.172931886301376;;;5.125;100.0
15558;BME280;7880;50.110;9.372;2023-12-14T12:11:36;5.203183851018548;;;5.125;100.0
15558;BME280;7880;50.110;9.372;2023-12-14T12:16:39;5.208225846156711;;;5.125;100.0
15558;BME280;7880;50.110;9.372;2023-12-14T12:21:46;5.18301587337628;;;5.125;100.0
15558;BME280;7880;50.110;9.372;2023-12-14T12:26:46;5.1527639156440275;;;5.125;100.0
15558;BME280;7880;50.110;9.372;2023-12-14T12:31:49;5.157805907871807;;;5.125;100.0
15558;BME280;7880;50.110;9.372;2023-12-14T12:36:58;5.167889893200481;;;5.125;100.0
15558;BME280;7880;50.110;9.372;2023-12-14T12:41:58;5.1073859986907335;;;5.062;100.0
15558;BME280;7880;50.110;9.372;2023-12-14T12:47:10;5.046882146090502;;;5.062;100.0
15558;BME280;7880;50.110;9.372;2023-12-14T12:52:16;5.172931886301376;;;5.062;100.0
15558;BME280;7880;50.110;9.372;2023-12-14T12:57:31;5.1527639156440275;;;5.125;100.0
15558;BME280;7880;50.110;9.372;2023-12-14T13:02:32;5.157805907871807;;;5.125;100.0
15558;BME280;7880;50.110;9.372;2023-12-14T13:07:38;5.1073859986907335;;;5.062;100.0
15558;BME280;7880;50.110;9.372;2023-12-14T13:12:41;5.1275539588707035;;;5.125;100.0
15558;BME280;7880;50.110;9.372;2023-12-14T13:17:52;5.1527639156440275;;;5.125;100.0
15558;BME280;7880;50.110;9.372;2023-12-14T13:22:48;5.167889893200481;;;5.125;100.0
15558;BME280;7880;50.110;9.372;2023-12-14T13:27:54;5.18301587337628;;;5.125;100.0
15558;BME280;7880;50.110;9.372;2023-12-14T13:33:02;5.1275539588707035;;;5.125;100.0
15558;BME280;7880;50.110;9.372;2023-12-14T13:38:02;5.157805907871807;;;5.125;100.0
15558;BME280;7880;50.110;9.372;2023-12-14T13:43:10;5.228393829619745;;;5.187;100.0
15558;BME280;7880;50.110;9.372;2023-12-14T13:48:09;5.1477219237072855;;;5.125;100.0
15558;BME280;7880;50.110;9.372;2023-12-14T13:53:13;5.1073859986907335;;;5.125;100.0
15558;BME280;7880;50.110;9.372;2023-12-14T13:57:14;5.1275539588707035;;;5.125;100.0
15558;BME280;7880;50.110;9.372;2023-12-14T14:02:25;5.177973879693309;;;5.125;100.0
15558;BME280;7880;50.110;9.372;2023-12-14T14:07:27;5.117469978198642;;;5.125;100.0
15558;BME280;7880;50.110;9.372;2023-12-14T14:12:27;5.087218043167377;;;5.062;100.0
15558;BME280;7880;50.110;9.372;2023-12-14T14:17:33;5.117469978198642;;;5.125;100.0
15558;BME280;7880;50.110;9.372;2023-12-14T14:22:37;5.122511968389153;;;5.062;100.0
15558;BME280;7880;50.110;9.372;2023-12-14T14:27:59;5.082176055014133;;;5.062;100.0
15558;BME280;7880;50.110;9.372;2023-12-14T14:33:19;5.067050092300633;;;5.062;100.0
15558;BME280;7880;50.110;9.372;2023-12-14T14:38:23;5.046882146090502;;;5.062;100.0
15558;BME280;7880;50.110;9.372;2023-12-14T14:43:18;5.031756189488806;;;5.0;100.0
15558;BME280;7880;50.110;9.372;2023-12-14T14:48:37;5.051924132206477;;;5.062;100.0
15558;BME280;7880;50.110;9.372;2023-12-14T14:53:37;5.0166302355064545;;;5.062;100.0
15558;BME280;7880;50.110;9.372;2023-12-14T14:58:38;5.056966118613491;;;5.062;100.0
15558;BME280;7880;50.110;9.372;2023-12-14T15:04:00;5.056966118613491;;;5.0;100.0
15558;BME280;7880;50.110;9.372;2023-12-14T15:09:02;5.001504284143448;;;5.0;100.0
15558;BME280;7880;50.110;9.372;2023-12-14T15:14:08;4.956126445770496;;;5.0;100.0
15558;BME280;7880;50.110;9.372;2023-12-14T15:19:09;4.900664675328881;;;4.937;100.0
15558;BME280;7880;50.110;9.372;2023-12-14T15:24:11;4.930916545749642;;;5.0;100.0
15558;BME280;7880;50.110;9.372;2023-12-14T15:29:17;4.935958525171737;;;4.937;100.0
15558;BME280;7880;50.110;9.372;2023-12-14T15:34:22;4.951084465184249;;;4.937;100.0
15558;BME280;7880;50.110;9.372;2023-12-14T15:39:26;4.956126445770496;;;4.937;100.0
15558;BME280;7880;50.110;9.372;2023-12-14T15:44:33;4.895622697944054;;;4.937;100.0
15558;BME280;7880;50.110;9.372;2023-12-14T15:49:34;4.8300770184258;;;4.875;100.0
15558;BME280;7880;50.110;9.372;2023-12-14T15:54:38;4.9712523892754685;;;5.062;100.0
15558;BME280;7880;50.110;9.372;2023-12-14T15:59:51;4.855286889342824;;;4.875;100.0
15558;BME280;7880;50.110;9.372;2023-12-14T16:04:52;4.885538744047517;;;4.875;100.0
15558;BME280;7880;50.110;9.372;2023-12-14T16:10:00;4.865370839746902;;;4.875;100.0
15558;BME280;7880;50.110;9.372;2023-12-14T16:15:15;4.814951099368045;;;4.812;100.0
15558;BME280;7880;50.110;9.372;2023-12-14T16:20:18;4.764531388093019;;;4.75;100.0
15558;BME280;7880;50.110;9.372;2023-12-14T16:25:22;6.075453339988599;;;5.812;100.0
15558;BME280;7880;50.110;9.372;2023-12-14T16:30:29;5.198141856171423;;;5.687;100.0
15558;BME280;7880;50.110;9.372;2023-12-14T16:35:32;4.7292376075172795;;;4.812;100.0
15558;BME280;7880;50.110;9.372;2023-12-14T16:40:37;4.7040277729800435;;;4.687;100.0
15558;BME280;7880;50.110;9.372;2023-12-14T16:45:45;4.734279575297842;;;4.75;100.0
15558;BME280;7880;50.110;9.372;2023-12-14T16:50:53;4.794783211365575;;;4.75;100.0
15558;BME280;7880;50.110;9.372;2023-12-14T16:55:54;4.9662104078161065;;;4.875;100.0
15558;BME280;7880;50.110;9.372;2023-12-14T17:00:54;4.870412815385498;;;5.0;100.0
15558;BME280;7880;50.110;9.372;2023-12-14T17:05:56;4.744363511732081;;;4.75;100.0
15558;BME280;7880;50.110;9.372;2023-12-14T17:11:07;4.628398313024081;;;4.687;100.0
15558;BME280;7880;50.110;9.372;2023-12-14T17:16:13;4.754447449330473;;;4.75;100.0
15558;BME280;7880;50.110;9.372;2023-12-14T17:21:16;4.583020668482641;;;4.625;100.0
15558;BME280;7880;50.110;9.372;2023-12-14T17:26:14;4.502349358616629;;;4.5;100.0
15558;BME280;7880;50.110;9.372;2023-12-14T17:31:23;4.451929827785352;;;4.5;100.0
15558;BME280;7880;50.110;9.372;2023-12-14T17:36:21;4.462013731623301;;;4.5;100.0
15558;BME280;7880;50.110;9.372;2023-12-14T17:41:45;4.467055683978833;;;4.5;100.0
15558;BME280;7880;50.110;9.372;2023-12-14T17:46:31;4.179664864210645;;;4.25;100.0
15558;BME280;7880;50.110;9.372;2023-12-14T17:51:43;4.225042299204506;;;4.187;100.0
15558;BME280;7880;50.110;9.372;2023-12-14T17:56:45;4.149413253978127;;;4.187;100.0
15558;BME280;7880;50.110;9.372;2023-12-14T18:01:44;4.169580992968986;;;4.187;100.0
15558;BME280;7880;50.110;9.372;2023-12-14T18:06:47;4.2401681161078155;;;4.187;100.0
15558;BME280;7880;50.110;9.372;2023-12-14T18:11:50;4.1242035867879165;;;4.125;100.0
15558;BME280;7880;50.110;9.372;2023-12-14T18:17:04;3.9628618890652434;;;4.0;100.0
15558;BME280;7880;50.110;9.372;2023-12-14T18:21:58;3.9779876605665776;;;4.0;100.0
15558;BME280;7880;50.110;9.372;2023-12-14T18:27:02;3.9779876605665776;;;4.062;100.0
15558;BME280;7880;50.110;9.372;2023-12-14T18:32:05;3.7158079919929152;;;3.812;100.0
15558;BME280;7880;50.110;9.372;2023-12-14T18:37:14;3.6754727282153907;;;3.812;100.0
15558;BME280;7880;50.110;9.372;2023-12-14T18:42:11;3.7309337207116187;;;3.812;100.0
15558;BME280;7880;50.110;9.372;2023-12-14T18:47:15;3.655305103311548;;;3.687;100.0
15558;BME280;7880;50.110;9.372;2023-12-14T18:52:16;3.5695927494205533;;;3.562;100.0
15558;BME280;7880;50.110;9.372;2023-12-14T18:57:21;3.5948022565396966;;;3.687;100.0
15558;BME280;7880;50.110;9.372;2023-12-14T19:01:33;3.48892237553373;;;3.625;100.0
15558;BME280;7880;50.110;9.372;2023-12-14T19:06:29;3.5695927494205533;;;3.625;100.0
15558;BME280;7880;50.110;9.372;2023-12-14T19:11:34;3.5847184528189246;;;3.687;100.0
15558;BME280;7880;50.110;9.372;2023-12-14T19:16:55;3.6300955787301064;;;3.625;100.0
15558;BME280;7880;50.110;9.372;2023-12-14T19:21:54;3.655305103311548;;;3.625;100.0
15558;BME280;7880;50.110;9.372;2023-12-14T19:26:52;3.7208499012747778;;;3.812;100.0
15558;BME280;7880;50.110;9.372;2023-12-14T19:31:57;3.831771979108453;;;3.812;100.0
15558;BME280;7880;50.110;9.372;2023-12-14T19:36:56;3.897316909494111;;;3.937;100.0
15558;BME280;7880;50.110;9.372;2023-12-14T19:42:03;3.836813895084197;;;3.937;100.0
15558;BME280;7880;50.110;9.372;2023-12-14T19:47:05;3.493964271718869;;;3.625;100.0
15558;BME280;7880;50.110;9.372;2023-12-14T19:52:08;3.554467048641527;;;3.687;100.0
15558;BME280;7880;50.110;9.372;2023-12-14T19:57:11;3.423377751611406;;;3.437;100.0
15558;BME280;7880;50.110;9.372;2023-12-14T20:02:15;3.5443832495773675;;;3.625;100.0
15558;BME280;7880;50.110;9.372;2023-12-14T20:07:19;3.5897603545337917;;;3.687;100.0
15558;BME280;7880;50.110;9.372;2023-12-14T20:12:27;3.38808451294899;;;3.5;100.0
15558;BME280;7880;50.110;9.372;2023-12-14T20:17:25;3.448587216529995;;;3.562;100.0
15558;BME280;7880;50.110;9.372;2023-12-14T20:22:32;3.2922886513231786;;;3.375;100.0
15558;BME280;7880;50.110;9.372;2023-12-14T20:27:39;3.453629110386828;;;3.437;100.0
15558;BME280;7880;50.110;9.372;2023-12-14T20:32:37;3.2721211148949805;;;3.375;100.0
15558;BME280;7880;50.110;9.372;2023-12-14T20:37:40;3.4435453229642006;;;3.437;100.0
15558;BME280;7880;50.110;9.372;2023-12-14T20:42:43;3.2771629985654727;;;3.375;100.0
15558;BME280;7880;50.110;9.372;2023-12-14T20:47:47;3.1410322416166307;;;3.25;100.0
15558;BME280;7880;50.110;9.372;2023-12-14T20:52:51;3.1511159941146616;;;3.187;100.0
15558;BME280;7880;50.110;9.372;2023-12-14T20:57:55;2.994817961216904;;;3.125;100.0
15558;BME280;7880;50.110;9.372;2023-12-14T21:02:58;3.020027302444214;;;3.125;100.0
15558;BME280;7880;50.110;9.372;2023-12-14T21:08:06;3.201534774067113;;;3.25;100.0
15558;BME280;7880;50.110;9.372;2023-12-14T21:13:05;3.2922886513231786;;;3.312;100.0
15558;BME280;7880;50.110;9.372;2023-12-14T21:18:10;3.0754878787556663;;;3.25;100.0
15558;BME280;7880;50.110;9.372;2023-12-14T21:23:14;2.8990225309098605;;;3.0;100.0
15558;BME280;7880;50.110;9.372;2023-12-14T21:28:24;2.86372950412333;;;2.937;100.0
15558;BME280;7880;50.110;9.372;2023-12-14T21:33:29;2.9393574361281933;;;3.0;100.0
15558;BME280;7880;50.110;9.372;2023-12-14T21:38:24;3.0704460067267063;;;3.0;100.0
15558;BME280;7880;50.110;9.372;2023-12-14T21:43:28;2.893980669067241;;;2.875;100.0
15558;BME280;7880;50.110;9.372;2023-12-14T21:48:30;2.636846101010451;;;2.75;100.0
15558;BME280;7880;50.110;9.372;2023-12-14T21:53:33;2.8082690622715747;;;2.875;100.0
15558;BME280;7880;50.110;9.372;2023-12-14T21:58:38;2.752808655635454;;;2.812;100.0
15558;BME280;7880;50.110;9.372;2023-12-14T22:03:39;2.5511347465449945;;;2.687;100.0
15558;BME280;7880;50.110;9.372;2023-12-14T22:08:42;2.4654234761896077;;;2.625;100.0
15558;BME280;7880;50.110;9.372;2023-12-14T22:13:45;2.3948377872875426;;;2.5;100.0
15558;BME280;7880;50.110;9.372;2023-12-14T22:18:48;2.42508878983208;;;2.562;100.0
15558;BME280;7880;50.110;9.372;2023-12-14T22:23:51;2.3141684983915183;;;2.437;100.0
15558;BME280;7880;50.110;9.372;2023-12-14T22:28:55;2.500716342031956;;;2.5;100.0
15558;BME280;7880;50.110;9.372;2023-12-14T22:33:58;2.475507150689373;;;2.562;100.0
15558;BME280;7880;50.110;9.372;2023-12-14T22:39:04;2.4502979666227476;;;2.5;100.0
15558;BME280;7880;50.110;9.372;2023-12-14T22:44:10;2.4150051211530807;;;2.5;100.0
15558;BME280;7880;50.110;9.372;2023-12-14T22:49:18;2.001575707650045;;;2.25;100.0
15558;BME280;7880;50.110;9.372;2023-12-14T22:54:13;1.8251125294947996;;;2.0;100.0
15558;BME280;7880;50.110;9.372;2023-12-14T22:59:24;1.961241235496709;;;2.062;100.0
15558;BME280;7880;50.110;9.372;2023-12-14T23:04:25;1.9057813666993753;;;1.937;100.0
15558;BME280;7880;50.110;9.372;2023-12-14T23:09:24;2.3393776431679725;;;2.312;100.0
15558;BME280;7880;50.110;9.372;2023-12-14T23:14:31;1.9713248517888133;;;2.0;100.0
15558;BME280;7880;50.110;9.372;2023-12-14T23:19:33;2.016701139509678;;;2.125;100.0
15558;BME280;7880;50.110;9.372;2023-12-14T23:24:37;1.8452797318110243;;;1.937;100.0
15558;BME280;7880;50.110;9.372;2023-12-14T23:29:44;1.8906559540482704;;;1.937;100.0
15558;BME280;7880;50.110;9.372;2023-12-14T23:34:44;1.9814084692450706;;;1.875;100.0
15558;BME280;7880;50.110;9.372;2023-12-14T23:39:49;2.243582931725541;;;2.187;100.0
15558;BME280;7880;50.110;9.372;2023-12-14T23:44:53;2.2334992840013;;;2.25;100.0
15558;BME280;7880;50.110;9.372;2023-12-14T23:49:56;2.4049214536382353;;;2.437;100.0
15558;BME280;7880;50.110;9.372;2023-12-14T23:55:05;2.2234156374412124;;;2.312;100.0
